Time;durP1;ratioP1;P1;durP2;ratioP2;P2;SDS_P1;SDS_P2;PMS_P1;PMS_P2;Temp;Humidity;BMP_temperature;BMP_pressure;BME280_temperature;BME280_humidity;BME280_pressure;Samples;Min_cycle;Max_cycle;Signal;HPM_P1;HPM_P2
2021/07/10 00:02:03;;;;;;;1.75;1.30;;;17.40;79.60;;;;;;5035425;28;20061;-73
2021/07/10 00:04:29;;;;;;;1.60;1.30;;;17.40;79.80;;;;;;5053593;28;20033;-73
2021/07/10 00:06:59;;;;;;;1.55;1.33;;;17.30;79.80;;;;;;5053068;28;20100;-73
2021/07/10 00:09:26;;;;;;;1.10;1.00;;;17.30;79.90;;;;;;5053562;28;20029;-73
2021/07/10 00:11:52;;;;;;;1.60;1.30;;;17.30;79.80;;;;;;5051046;28;20044;-72
2021/07/10 00:14:18;;;;;;;2.38;1.30;;;17.30;79.80;;;;;;5053446;28;20111;-72
2021/07/10 00:16:43;;;;;;;1.60;1.50;;;17.30;79.90;;;;;;5053358;28;20025;-74
2021/07/10 00:19:10;;;;;;;2.35;1.65;;;17.30;79.80;;;;;;5035652;28;20025;-73
2021/07/10 00:21:38;;;;;;;1.88;1.42;;;17.30;79.80;;;;;;5052777;28;20105;-73
2021/07/10 00:24:05;;;;;;;1.37;1.27;;;17.30;80.00;;;;;;5053237;28;20083;-73
2021/07/10 00:26:32;;;;;;;1.33;1.20;;;17.30;80.00;;;;;;5035286;28;20111;-72
2021/07/10 00:28:58;;;;;;;2.60;1.83;;;17.30;80.10;;;;;;5053307;28;20075;-73
2021/07/10 00:31:23;;;;;;;1.85;1.30;;;17.30;80.20;;;;;;5052749;28;20017;-73
2021/07/10 00:33:49;;;;;;;1.80;1.40;;;17.30;80.20;;;;;;5052633;28;20024;-74
2021/07/10 00:36:14;;;;;;;1.73;1.40;;;17.20;80.20;;;;;;5053094;28;20463;-73
2021/07/10 00:38:40;;;;;;;1.60;1.50;;;17.30;80.30;;;;;;5035200;28;20036;-73
2021/07/10 00:41:08;;;;;;;1.98;1.38;;;17.30;80.30;;;;;;5053045;28;20029;-72
2021/07/10 00:43:33;;;;;;;1.80;1.70;;;17.20;80.30;;;;;;5052999;28;20108;-72
2021/07/10 00:45:59;;;;;;;2.80;1.40;;;17.20;80.30;;;;;;5052980;28;20082;-73
2021/07/10 00:48:24;;;;;;;2.10;1.48;;;17.20;80.90;;;;;;5052412;28;20021;-73
2021/07/10 00:50:50;;;;;;;1.42;1.27;;;17.20;81.00;;;;;;5052974;28;20045;-73
2021/07/10 00:53:16;;;;;;;1.42;1.33;;;17.20;80.90;;;;;;5053025;28;20033;-73
2021/07/10 00:55:42;;;;;;;1.50;1.40;;;17.20;80.40;;;;;;5052964;28;20021;-71
2021/07/10 00:58:09;;;;;;;1.88;1.40;;;17.20;80.40;;;;;;5052848;28;20025;-71
2021/07/10 01:00:35;;;;;;;1.58;1.13;;;17.20;80.40;;;;;;5052799;28;20320;-72
2021/07/10 01:03:01;;;;;;;1.52;1.15;;;17.20;80.30;;;;;;5052317;28;20543;-73
2021/07/10 01:05:29;;;;;;;1.27;1.02;;;17.30;80.20;;;;;;5052891;28;20355;-71
2021/07/10 01:07:56;;;;;;;2.35;1.48;;;17.40;80.20;;;;;;5052766;28;20021;-72
2021/07/10 01:10:22;;;;;;;0.98;0.93;;;17.40;80.10;;;;;;5052787;28;20043;-72
2021/07/10 01:12:51;;;;;;;1.33;0.90;;;17.50;80.10;;;;;;5052483;28;20120;-72
2021/07/10 01:15:19;;;;;;;1.53;1.17;;;17.50;80.10;;;;;;5052734;28;20537;-72
2021/07/10 01:17:46;;;;;;;1.80;1.33;;;17.50;80.00;;;;;;5052225;28;20293;-72
2021/07/10 01:20:21;;;;;;;1.88;1.40;;;17.50;80.10;;;;;;5052635;28;20021;-73
2021/07/10 01:22:48;;;;;;;2.20;1.70;;;17.50;80.20;;;;;;5052655;28;20456;-72
2021/07/10 01:25:21;;;;;;;2.38;1.42;;;17.50;80.30;;;;;;5052762;28;20025;-72
2021/07/10 01:27:48;;;;;;;1.98;1.60;;;17.60;80.30;;;;;;5034823;28;20025;-72
2021/07/10 01:30:16;;;;;;;1.02;0.93;;;17.60;80.20;;;;;;5034539;28;20373;-72
2021/07/10 01:32:44;;;;;;;2.90;1.92;;;17.70;80.20;;;;;;5052244;28;20029;-73
2021/07/10 01:35:10;;;;;;;2.00;1.60;;;17.70;80.10;;;;;;5052606;28;20112;-73
2021/07/10 01:37:37;;;;;;;2.05;1.58;;;17.80;80.10;;;;;;5052570;28;20029;-73
2021/07/10 01:40:05;;;;;;;1.80;1.50;;;17.80;80.10;;;;;;5052519;28;20382;-73
2021/07/10 01:42:31;;;;;;;1.95;1.55;;;17.80;80.10;;;;;;5055321;28;20037;-73
2021/07/10 01:44:58;;;;;;;2.13;1.40;;;17.80;80.10;;;;;;5056198;28;20104;-73
2021/07/10 01:47:23;;;;;;;2.15;1.40;;;17.80;80.30;;;;;;5055770;28;20032;-72
2021/07/10 01:49:49;;;;;;;1.67;1.30;;;17.70;80.20;;;;;;5056319;28;20420;-72
2021/07/10 01:52:14;;;;;;;1.38;1.10;;;17.70;80.30;;;;;;5056027;28;20025;-73
2021/07/10 01:54:40;;;;;;;1.27;1.15;;;17.70;80.40;;;;;;5056176;28;20079;-73
2021/07/10 01:57:09;;;;;;;1.88;1.52;;;17.60;80.40;;;;;;5038090;28;20048;-73
2021/07/10 01:59:36;;;;;;;1.83;1.55;;;17.60;80.60;;;;;;5055966;28;20486;-73
2021/07/10 02:02:02;;;;;;;1.50;1.33;;;17.60;80.70;;;;;;5055357;28;20021;-73
2021/07/10 02:04:27;;;;;;;2.60;1.55;;;17.50;80.70;;;;;;5037801;28;20504;-73
2021/07/10 02:06:53;;;;;;;1.38;1.27;;;17.50;80.80;;;;;;5055814;28;20024;-72
2021/07/10 02:09:18;;;;;;;1.42;1.30;;;17.40;80.80;;;;;;5055810;28;20478;-73
2021/07/10 02:11:46;;;;;;;1.05;0.95;;;17.50;80.90;;;;;;5055427;28;20074;-73
2021/07/10 02:14:14;;;;;;;2.40;1.63;;;17.40;80.80;;;;;;5055608;28;20018;-73
2021/07/10 02:16:40;;;;;;;1.80;1.45;;;17.50;80.90;;;;;;5055088;28;20040;-73
2021/07/10 02:19:05;;;;;;;3.17;2.08;;;17.50;81.00;;;;;;5055615;28;20411;-73
2021/07/10 02:21:31;;;;;;;3.55;2.30;;;17.40;80.90;;;;;;5037739;28;20497;-73
2021/07/10 02:23:56;;;;;;;2.10;1.60;;;17.50;81.00;;;;;;5055333;28;20453;-73
2021/07/10 02:26:22;;;;;;;2.35;1.85;;;17.40;81.10;;;;;;5055453;28;20024;-72
2021/07/10 02:28:48;;;;;;;1.70;1.40;;;17.40;81.10;;;;;;5055362;28;20376;-73
2021/07/10 02:31:13;;;;;;;2.20;1.50;;;17.40;81.10;;;;;;5037165;28;20043;-73
2021/07/10 02:33:39;;;;;;;1.88;1.67;;;17.40;81.10;;;;;;5055287;28;20386;-73
2021/07/10 02:36:04;;;;;;;2.70;1.50;;;17.40;81.20;;;;;;5055372;28;20075;-72
2021/07/10 02:38:30;;;;;;;3.08;1.70;;;17.40;81.40;;;;;;5055299;28;20431;-72
2021/07/10 02:40:56;;;;;;;2.47;1.55;;;17.30;81.50;;;;;;5055118;28;20489;-72
2021/07/10 02:43:21;;;;;;;2.30;1.65;;;17.30;81.70;;;;;;5054854;28;20043;-73
2021/07/10 02:45:47;;;;;;;3.42;2.40;;;17.20;81.70;;;;;;5054663;28;20045;-73
2021/07/10 02:48:12;;;;;;;2.05;1.45;;;17.20;81.70;;;;;;5055014;28;20536;-73
2021/07/10 02:50:40;;;;;;;3.55;2.13;;;17.10;81.80;;;;;;5054831;28;20017;-74
2021/07/10 02:53:08;;;;;;;2.60;1.83;;;17.10;81.90;;;;;;5054334;28;20410;-73
2021/07/10 02:55:35;;;;;;;2.45;1.92;;;17.10;81.90;;;;;;5054859;28;20048;-73
2021/07/10 02:58:01;;;;;;;3.42;2.30;;;17.00;82.00;;;;;;5055005;28;20025;-72
2021/07/10 03:00:28;;;;;;;2.90;1.90;;;17.00;82.10;;;;;;5054310;28;20025;-72
2021/07/10 03:02:55;;;;;;;1.83;1.48;;;17.00;82.10;;;;;;5054643;28;20529;-73
2021/07/10 03:05:21;;;;;;;2.17;1.50;;;17.00;82.20;;;;;;5054773;28;20104;-72
2021/07/10 03:07:47;;;;;;;1.45;1.33;;;16.90;82.20;;;;;;5054686;28;20538;-73
2021/07/10 03:10:16;;;;;;;1.95;1.48;;;16.90;82.30;;;;;;5036645;28;20543;-71
2021/07/10 03:12:42;;;;;;;;;;;16.80;82.90;;;;;;5054834;28;20148;-72
2021/07/10 03:15:09;;;;;;;2.33;1.40;;;16.70;82.10;;;;;;5054147;28;20003;-73
2021/07/10 03:17:35;;;;;;;2.30;1.75;;;16.70;82.40;;;;;;5054597;28;20021;-73
2021/07/10 03:20:03;;;;;;;2.17;1.70;;;16.70;82.50;;;;;;5054564;28;20032;-72
2021/07/10 03:22:29;;;;;;;2.08;1.60;;;16.60;82.50;;;;;;5054414;28;20469;-72
2021/07/10 03:24:55;;;;;;;2.42;1.80;;;16.60;82.60;;;;;;5054232;28;20040;-72
2021/07/10 03:27:20;;;;;;;1.90;1.73;;;16.60;82.70;;;;;;5054298;28;20485;-73
2021/07/10 03:29:46;;;;;;;1.77;1.50;;;16.50;82.60;;;;;;5053772;28;20021;-72
2021/07/10 03:32:12;;;;;;;2.00;1.60;;;16.50;82.70;;;;;;5054211;28;20032;-73
2021/07/10 03:34:40;;;;;;;2.67;1.95;;;16.50;82.60;;;;;;5054088;28;20079;-73
2021/07/10 03:37:05;;;;;;;2.33;1.80;;;16.50;82.60;;;;;;5054137;28;20032;-73
2021/07/10 03:39:31;;;;;;;2.28;1.75;;;16.50;82.60;;;;;;5053935;28;20021;-73
2021/07/10 03:41:56;;;;;;;1.65;1.55;;;16.50;82.60;;;;;;5053975;28;20028;-72
2021/07/10 03:44:22;;;;;;;2.40;1.67;;;16.50;82.70;;;;;;5053517;28;20510;-73
2021/07/10 03:46:47;;;;;;;3.53;1.80;;;16.40;82.80;;;;;;5054046;28;20029;-73
2021/07/10 03:49:13;;;;;;;1.95;1.67;;;16.40;83.00;;;;;;5054066;28;20029;-72
2021/07/10 03:51:38;;;;;;;2.55;1.83;;;16.40;83.00;;;;;;5053741;28;20030;-72
2021/07/10 03:54:04;;;;;;;1.98;1.75;;;16.40;83.00;;;;;;5053688;28;20028;-72
2021/07/10 03:56:30;;;;;;;2.30;1.70;;;16.40;83.00;;;;;;5053900;28;20036;-73
2021/07/10 03:58:56;;;;;;;2.75;1.83;;;16.30;83.10;;;;;;5053270;28;20028;-72
2021/07/10 04:01:21;;;;;;;2.53;1.50;;;16.40;83.20;;;;;;5053701;28;20024;-72
2021/07/10 04:03:47;;;;;;;2.03;1.60;;;16.40;83.10;;;;;;5053429;28;20029;-72
2021/07/10 04:06:12;;;;;;;1.92;1.50;;;16.40;83.00;;;;;;5052822;28;20351;-72
2021/07/10 04:08:38;;;;;;;2.63;1.92;;;16.50;83.00;;;;;;5053562;28;20492;-72
2021/07/10 04:11:03;;;;;;;4.28;2.13;;;16.50;82.90;;;;;;5053584;28;20013;-72
2021/07/10 04:13:29;;;;;;;1.55;1.45;;;16.50;82.80;;;;;;5052678;28;20465;-72
2021/07/10 04:15:55;;;;;;;3.35;2.28;;;16.60;82.70;;;;;;5053463;28;20029;-73
2021/07/10 04:18:21;;;;;;;1.95;1.50;;;16.70;82.70;;;;;;5053419;28;20025;-73
2021/07/10 04:20:46;;;;;;;2.22;1.42;;;16.70;82.60;;;;;;5053458;28;20053;-73
2021/07/10 04:23:12;;;;;;;2.08;1.45;;;16.80;82.50;;;;;;5053229;28;20060;-73
2021/07/10 04:25:37;;;;;;;1.17;1.17;;;16.90;82.50;;;;;;5035396;28;20013;-72
2021/07/10 04:28:03;;;;;;;2.38;1.50;;;16.90;82.40;;;;;;5052895;28;20497;-73
2021/07/10 04:30:28;;;;;;;1.73;1.50;;;17.00;82.40;;;;;;5053213;28;20059;-72
2021/07/10 04:32:54;;;;;;;1.60;1.50;;;17.10;82.30;;;;;;5053135;28;20051;-72
2021/07/10 04:35:20;;;;;;;1.20;1.10;;;17.10;82.30;;;;;;5053365;28;20377;-73
2021/07/10 04:37:45;;;;;;;2.00;1.48;;;17.10;82.30;;;;;;5053203;28;20021;-72
2021/07/10 04:40:13;;;;;;;1.75;1.60;;;17.20;82.30;;;;;;5053167;28;20021;-73
2021/07/10 04:42:39;;;;;;;1.60;1.42;;;17.20;83.00;;;;;;5052436;28;20025;-73
2021/07/10 04:45:07;;;;;;;0.98;0.95;;;17.30;82.20;;;;;;5053207;28;20025;-73
2021/07/10 04:47:32;;;;;;;2.05;1.58;;;17.40;82.20;;;;;;5052872;28;20022;-72
2021/07/10 04:49:58;;;;;;;1.85;1.40;;;17.50;82.10;;;;;;5053074;28;20082;-72
2021/07/10 04:52:24;;;;;;;2.90;1.85;;;17.60;82.00;;;;;;5052927;28;20025;-73
2021/07/10 04:54:49;;;;;;;3.10;1.67;;;17.70;81.90;;;;;;5052424;28;20021;-75
2021/07/10 04:57:15;;;;;;;2.17;1.48;;;17.70;81.80;;;;;;5052816;28;20032;-72
2021/07/10 04:59:40;;;;;;;1.77;1.20;;;17.80;81.70;;;;;;5052881;28;20017;-73
2021/07/10 05:02:06;;;;;;;2.20;1.38;;;17.90;81.70;;;;;;5052931;28;20477;-73
2021/07/10 05:04:31;;;;;;;2.33;1.83;;;17.90;81.70;;;;;;5053069;28;20374;-73
2021/07/10 05:06:57;;;;;;;1.40;1.30;;;17.90;81.70;;;;;;5052816;28;20032;-73
2021/07/10 05:09:23;;;;;;;2.22;1.50;;;18.00;81.80;;;;;;5052292;28;20021;-72
2021/07/10 05:11:49;;;;;;;1.88;1.42;;;18.00;81.90;;;;;;5052773;28;20072;-71
2021/07/10 05:14:16;;;;;;;1.48;1.10;;;18.00;81.90;;;;;;5052889;28;20470;-73
2021/07/10 05:16:42;;;;;;;1.80;1.27;;;18.00;82.10;;;;;;5054573;28;20186;-73
2021/07/10 05:19:08;;;;;;;2.28;1.70;;;18.00;82.20;;;;;;5056681;28;20031;-74
2021/07/10 05:21:34;;;;;;;1.92;1.30;;;18.00;82.20;;;;;;5056568;28;20033;-73
2021/07/10 05:23:59;;;;;;;3.13;1.90;;;18.00;82.20;;;;;;5056200;28;20106;-72
2021/07/10 05:26:25;;;;;;;2.08;1.67;;;18.10;82.30;;;;;;5056635;28;20053;-72
2021/07/10 05:28:51;;;;;;;1.98;1.67;;;18.10;82.30;;;;;;5056496;28;20021;-73
2021/07/10 05:31:16;;;;;;;2.70;1.83;;;18.10;82.30;;;;;;5056500;28;20543;-72
2021/07/10 05:33:43;;;;;;;3.55;2.13;;;18.20;82.30;;;;;;5056607;28;20470;-73
2021/07/10 05:36:09;;;;;;;3.13;2.00;;;18.20;82.20;;;;;;5038317;28;20057;-72
2021/07/10 05:38:35;;;;;;;4.43;2.75;;;18.30;82.30;;;;;;5055951;28;20021;-72
2021/07/10 05:41:00;;;;;;;3.88;2.40;;;18.30;82.20;;;;;;5056290;28;20074;-72
2021/07/10 05:43:26;;;;;;;2.35;1.77;;;18.30;82.20;;;;;;5056175;28;20041;-72
2021/07/10 05:45:51;;;;;;;2.03;1.77;;;18.40;82.30;;;;;;5056293;28;20024;-72
2021/07/10 05:48:17;;;;;;;3.55;2.40;;;18.40;82.30;;;;;;5056168;28;20482;-73
2021/07/10 05:50:43;;;;;;;2.05;1.67;;;18.50;82.30;;;;;;5056166;28;20112;-73
2021/07/10 05:53:12;;;;;;;2.17;1.67;;;18.50;82.20;;;;;;5055640;28;20047;-72
2021/07/10 05:55:38;;;;;;;2.77;1.80;;;18.60;82.30;;;;;;5056135;28;20025;-73
2021/07/10 05:58:04;;;;;;;2.20;1.85;;;18.60;82.10;;;;;;5055895;28;20013;-73
2021/07/10 06:00:31;;;;;;;3.15;2.05;;;18.70;82.00;;;;;;5056001;28;20029;-72
2021/07/10 06:02:57;;;;;;;3.88;2.45;;;18.80;81.90;;;;;;5055836;28;20029;-72
2021/07/10 06:05:23;;;;;;;3.20;2.33;;;18.90;81.90;;;;;;5055890;28;20040;-73
2021/07/10 06:07:48;;;;;;;3.85;2.30;;;19.00;81.80;;;;;;5055285;28;20021;-73
2021/07/10 06:10:14;;;;;;;2.97;2.30;;;19.00;81.70;;;;;;5055907;28;20100;-73
2021/07/10 06:12:40;;;;;;;2.85;2.25;;;19.10;81.60;;;;;;5053413;28;20106;-83
2021/07/10 06:15:08;;;;;;;4.38;3.17;;;19.20;81.60;;;;;;5055675;28;20024;-75
2021/07/10 06:17:34;;;;;;;3.80;2.47;;;19.30;81.80;;;;;;5055346;28;20079;-75
2021/07/10 06:20:00;;;;;;;5.03;3.08;;;19.30;81.60;;;;;;5055630;28;20028;-73
2021/07/10 06:22:25;;;;;;;5.47;3.67;;;19.30;81.70;;;;;;5054898;28;20513;-73
2021/07/10 06:24:52;;;;;;;5.82;4.30;;;19.30;81.60;;;;;;5055514;28;20032;-74
2021/07/10 06:27:17;;;;;;;5.03;3.70;;;19.40;81.70;;;;;;5054951;28;20029;-75
2021/07/10 06:29:44;;;;;;;7.38;4.53;;;19.40;81.70;;;;;;5037146;28;20024;-75
2021/07/10 06:32:11;;;;;;;6.28;4.35;;;19.30;81.80;;;;;;5055263;28;20025;-76
2021/07/10 06:34:37;;;;;;;6.85;4.38;;;19.40;81.80;;;;;;5055337;28;20024;-76
2021/07/10 06:37:03;;;;;;;5.47;4.07;;;19.40;81.90;;;;;;5054771;28;20025;-75
2021/07/10 06:39:29;;;;;;;5.25;3.33;;;19.40;81.70;;;;;;5055152;28;20021;-75
2021/07/10 06:41:54;;;;;;;5.88;3.50;;;19.50;81.80;;;;;;5055103;28;20500;-77
2021/07/10 06:44:19;;;;;;;5.28;3.83;;;19.50;81.70;;;;;;5055081;28;20040;-77
2021/07/10 06:46:45;;;;;;;6.82;5.10;;;19.60;81.60;;;;;;5055034;28;20021;-75
2021/07/10 06:49:10;;;;;;;6.40;4.40;;;19.60;81.50;;;;;;5055062;28;20582;-75
2021/07/10 06:51:36;;;;;;;5.65;3.58;;;19.60;81.60;;;;;;5054432;28;20104;-75
2021/07/10 06:54:02;;;;;;;5.53;3.92;;;19.60;81.70;;;;;;5054950;28;20490;-75
2021/07/10 06:56:29;;;;;;;5.50;3.40;;;19.60;81.60;;;;;;5054868;28;20029;-75
2021/07/10 06:58:54;;;;;;;5.85;3.85;;;19.70;81.70;;;;;;5055380;28;20437;-75
2021/07/10 07:01:20;;;;;;;4.65;3.15;;;19.80;81.50;;;;;;5054873;28;20496;-76
2021/07/10 07:03:45;;;;;;;4.10;3.00;;;19.90;81.30;;;;;;5054688;28;20540;-75
2021/07/10 07:06:11;;;;;;;4.95;3.47;;;20.00;81.30;;;;;;5054211;28;20531;-75
2021/07/10 07:08:37;;;;;;;5.80;4.78;;;20.10;81.20;;;;;;5054794;28;20017;-76
2021/07/10 07:11:02;;;;;;;6.80;3.63;;;20.10;81.00;;;;;;5054724;28;20028;-76
2021/07/10 07:13:28;;;;;;;4.80;3.42;;;20.20;80.90;;;;;;5054375;28;20104;-76
2021/07/10 07:15:53;;;;;;;5.20;3.65;;;20.20;81.00;;;;;;5054548;28;20025;-75
2021/07/10 07:18:19;;;;;;;4.72;3.10;;;20.20;81.00;;;;;;5054332;28;20462;-75
2021/07/10 07:20:44;;;;;;;4.85;3.25;;;20.20;80.90;;;;;;5054186;28;20363;-76
2021/07/10 07:23:11;;;;;;;5.40;3.75;;;20.30;80.90;;;;;;5054441;28;20116;-75
2021/07/10 07:25:37;;;;;;;4.65;3.33;;;20.30;80.70;;;;;;5054717;28;20060;-74
2021/07/10 07:28:03;;;;;;;6.13;3.97;;;20.40;80.80;;;;;;5054616;28;20032;-75
2021/07/10 07:30:28;;;;;;;4.60;3.65;;;20.40;80.80;;;;;;5054001;28;20022;-75
2021/07/10 07:32:54;;;;;;;6.93;4.35;;;20.50;80.60;;;;;;5054253;28;20488;-77
2021/07/10 07:35:21;;;;;;;5.35;3.53;;;20.50;80.60;;;;;;5053566;28;20021;-74
2021/07/10 07:37:48;;;;;;;4.97;3.47;;;20.40;80.70;;;;;;5054057;28;20073;-74
2021/07/10 07:40:15;;;;;;;4.88;3.67;;;20.50;81.50;;;;;;5053910;28;20044;-76
2021/07/10 07:42:42;;;;;;;5.50;4.22;;;20.50;80.60;;;;;;5053863;28;20048;-75
2021/07/10 07:45:09;;;;;;;4.82;2.92;;;20.60;80.50;;;;;;5053923;28;20021;-75
2021/07/10 07:47:35;;;;;;;4.45;2.72;;;20.70;80.40;;;;;;5053821;28;20025;-75
2021/07/10 07:50:01;;;;;;;5.55;3.90;;;20.90;80.20;;;;;;5053409;28;20022;-76
2021/07/10 07:52:26;;;;;;;5.10;3.33;;;21.00;79.90;;;;;;5053895;28;20021;-75
2021/07/10 07:54:52;;;;;;;3.78;3.00;;;21.10;79.90;;;;;;5054013;28;20036;-75
2021/07/10 07:57:18;;;;;;;3.00;2.47;;;21.20;79.90;;;;;;5053690;28;20096;-76
2021/07/10 07:59:43;;;;;;;3.72;2.33;;;21.20;79.90;;;;;;5053689;28;20028;-80
2021/07/10 08:02:09;;;;;;;4.60;2.50;;;21.20;79.90;;;;;;5053579;28;20021;-76
2021/07/10 08:04:36;;;;;;;3.83;2.70;;;21.30;79.90;;;;;;5053209;28;20497;-74
2021/07/10 08:07:02;;;;;;;3.92;2.78;;;21.30;79.80;;;;;;5053851;28;20424;-76
2021/07/10 08:09:28;;;;;;;4.85;3.30;;;21.40;79.70;;;;;;5053585;28;20032;-75
2021/07/10 08:11:54;;;;;;;4.40;2.70;;;21.50;79.70;;;;;;5053315;28;20021;-74
2021/07/10 08:14:20;;;;;;;3.53;2.60;;;21.50;79.70;;;;;;5053435;28;20024;-75
2021/07/10 08:16:45;;;;;;;3.78;3.13;;;21.60;79.60;;;;;;5035599;28;20027;-75
2021/07/10 08:19:11;;;;;;;3.58;2.53;;;21.70;79.50;;;;;;5035085;28;20534;-74
2021/07/10 08:21:36;;;;;;;3.70;2.45;;;21.80;79.40;;;;;;5053286;28;20032;-74
2021/07/10 08:24:02;;;;;;;2.90;2.47;;;21.90;79.30;;;;;;5053282;28;20029;-74
2021/07/10 08:26:28;;;;;;;3.45;2.50;;;21.90;79.30;;;;;;5053292;28;20021;-75
2021/07/10 08:28:54;;;;;;;3.35;2.80;;;21.90;79.30;;;;;;5053312;28;20029;-85
2021/07/10 08:31:21;;;;;;;3.40;2.28;;;21.90;79.30;;;;;;5053168;28;20099;-75
2021/07/10 08:33:47;;;;;;;3.55;2.45;;;21.90;79.40;;;;;;5052831;28;20099;-76
2021/07/10 08:36:12;;;;;;;2.42;1.85;;;21.90;79.30;;;;;;5053096;28;20017;-75
2021/07/10 08:38:38;;;;;;;4.75;2.45;;;22.00;79.30;;;;;;5053001;28;20063;-74
2021/07/10 08:41:08;;;;;;;3.13;2.60;;;22.10;79.10;;;;;;5053129;28;20021;-73
2021/07/10 08:43:34;;;;;;;3.70;2.30;;;22.20;79.00;;;;;;5053014;28;20033;-72
2021/07/10 08:46:03;;;;;;;3.60;2.30;;;22.20;78.70;;;;;;5053081;28;20078;-72
2021/07/10 08:48:30;;;;;;;3.35;2.20;;;22.20;78.80;;;;;;5052676;28;20496;-74
2021/07/10 08:50:57;;;;;;;4.05;2.83;;;22.20;79.00;;;;;;5037017;28;20478;-72
2021/07/10 08:53:23;;;;;;;3.78;2.47;;;22.20;78.80;;;;;;5059628;28;20025;-73
2021/07/10 08:55:50;;;;;;;2.22;2.03;;;22.30;78.90;;;;;;5059603;28;20028;-73
2021/07/10 08:58:17;;;;;;;2.80;2.22;;;22.30;78.90;;;;;;5059582;28;20079;-73
2021/07/10 09:00:43;;;;;;;3.55;2.17;;;22.30;78.80;;;;;;5059425;28;20489;-73
2021/07/10 09:03:09;;;;;;;3.35;1.80;;;22.30;78.50;;;;;;5059007;28;20110;-73
2021/07/10 09:05:35;;;;;;;1.88;1.50;;;22.20;78.70;;;;;;5059654;28;20374;-72
2021/07/10 09:08:41;;;;;;;2.90;1.60;;;22.10;78.80;;;;;;5059549;28;20371;-71
2021/07/10 09:11:14;;;;;;;1.88;1.45;;;22.00;78.90;;;;;;5039180;28;20045;-72
2021/07/10 09:13:41;;;;;;;1.92;1.20;;;22.00;79.00;;;;;;5059638;28;20136;-73
2021/07/10 09:16:13;;;;;;;1.30;1.20;;;22.00;78.80;;;;;;5059010;28;20025;-73
2021/07/10 09:19:06;;;;;;;1.10;0.85;;;21.90;78.60;;;;;;5041535;28;20024;-72
2021/07/10 09:21:51;;;;;;;2.28;1.60;;;21.90;78.50;;;;;;5036604;28;20412;-72
2021/07/10 09:24:25;;;;;;;1.60;1.30;;;21.90;78.30;;;;;;5059327;28;20029;-72
2021/07/10 09:26:57;;;;;;;1.83;1.48;;;21.80;78.50;;;;;;5059407;28;20024;-72
2021/07/10 09:29:25;;;;;;;1.60;1.50;;;21.90;78.50;;;;;;5059256;28;20413;-73
2021/07/10 09:31:58;;;;;;;1.80;1.42;;;22.00;78.20;;;;;;5058948;28;20013;-73
2021/07/10 09:34:30;;;;;;;1.30;1.20;;;22.20;77.90;;;;;;5059419;28;20013;-71
2021/07/10 09:37:01;;;;;;;1.65;1.27;;;22.30;77.70;;;;;;5059158;28;20021;-72
2021/07/10 09:39:31;;;;;;;1.83;1.30;;;22.50;77.40;;;;;;5059329;28;20032;-72
2021/07/10 09:41:57;;;;;;;1.98;1.42;;;22.60;77.20;;;;;;5059223;28;20033;-72
2021/07/10 09:44:24;;;;;;;1.40;1.30;;;22.60;77.10;;;;;;5059187;28;20064;-72
2021/07/10 09:46:49;;;;;;;1.27;1.00;;;22.70;76.90;;;;;;5058663;28;20017;-73
2021/07/10 09:49:27;;;;;;;1.00;1.00;;;22.70;76.90;;;;;;5059305;28;20539;-72
2021/07/10 09:51:58;;;;;;;1.55;1.10;;;22.70;76.90;;;;;;5059225;28;20113;-73
2021/07/10 09:54:29;;;;;;;2.03;1.67;;;22.80;76.60;;;;;;5059149;28;20029;-72
2021/07/10 09:57:13;;;;;;;1.33;1.23;;;22.80;76.60;;;;;;5059065;28;20051;-73
2021/07/10 09:59:41;;;;;;;1.10;0.90;;;22.80;76.30;;;;;;5058587;28;20025;-74
2021/07/10 10:02:17;;;;;;;1.30;1.20;;;22.90;77.10;;;;;;5058376;28;20035;-73
2021/07/10 10:04:43;;;;;;;1.35;1.20;;;22.90;76.30;;;;;;5055914;28;20037;-72
2021/07/10 10:07:15;;;;;;;1.60;1.50;;;22.90;76.20;;;;;;5055933;28;20477;-73
2021/07/10 10:09:41;;;;;;;1.55;1.30;;;23.00;75.90;;;;;;5055826;28;20096;-73
2021/07/10 10:12:15;;;;;;;1.42;1.00;;;23.00;76.40;;;;;;5055597;28;20135;-73
2021/07/10 10:15:01;;;;;;;1.80;1.20;;;23.00;76.00;;;;;;5037505;28;20021;-72
2021/07/10 10:17:27;;;;;;;1.27;1.17;;;23.00;75.80;;;;;;5037114;28;20432;-72
2021/07/10 10:19:54;;;;;;;1.48;1.30;;;23.00;76.60;;;;;;5055719;28;20021;-72
2021/07/10 10:22:20;;;;;;;1.50;1.40;;;23.00;75.80;;;;;;5055476;28;20021;-71
2021/07/10 10:24:49;;;;;;;1.15;1.05;;;22.90;75.70;;;;;;5055601;28;20033;-73
2021/07/10 10:27:16;;;;;;;1.42;1.00;;;22.90;75.70;;;;;;5055462;28;20021;-73
2021/07/10 10:29:42;;;;;;;1.55;1.15;;;23.00;75.70;;;;;;5037199;28;20108;-73
2021/07/10 10:32:09;;;;;;;1.08;0.98;;;23.00;75.70;;;;;;5037534;28;20110;-73
2021/07/10 10:34:37;;;;;;;1.13;1.00;;;23.10;75.50;;;;;;5055294;28;20017;-72
2021/07/10 10:37:03;;;;;;;1.88;1.35;;;23.10;75.20;;;;;;5055274;28;20470;-73
2021/07/10 10:39:35;;;;;;;1.90;1.35;;;23.10;75.20;;;;;;5055239;28;20385;-73
2021/07/10 10:42:07;;;;;;;1.55;1.20;;;23.10;75.30;;;;;;5055328;28;20052;-72
2021/07/10 10:44:40;;;;;;;1.15;1.00;;;23.20;75.30;;;;;;5054520;28;20511;-73
2021/07/10 10:47:09;;;;;;;3.22;1.42;;;23.30;75.00;;;;;;5055110;28;20036;-73
2021/07/10 10:49:43;;;;;;;1.42;1.33;;;23.50;74.80;;;;;;5055291;28;20078;-72
2021/07/10 10:52:24;;;;;;;1.77;1.60;;;23.50;74.80;;;;;;5055192;28;20422;-72
2021/07/10 10:54:52;;;;;;;2.33;1.48;;;23.60;74.90;;;;;;5054916;28;20082;-72
2021/07/10 10:57:31;;;;;;;1.55;1.45;;;23.70;74.70;;;;;;5054893;28;20013;-72
2021/07/10 10:59:57;;;;;;;3.28;1.70;;;23.70;74.90;;;;;;5055041;28;20057;-72
2021/07/10 11:02:41;;;;;;;2.65;1.73;;;23.80;74.90;;;;;;5054776;28;20025;-73
2021/07/10 11:05:06;;;;;;;2.40;1.92;;;23.90;74.40;;;;;;5054851;28;20032;-73
2021/07/10 11:07:35;;;;;;;2.30;1.90;;;23.80;74.40;;;;;;5054695;28;20025;-73
2021/07/10 11:10:15;;;;;;;3.00;2.00;;;23.60;74.60;;;;;;5036861;28;20013;-73
2021/07/10 11:12:50;;;;;;;2.47;2.05;;;23.50;74.70;;;;;;5053969;28;20401;-72
2021/07/10 11:15:24;;;;;;;2.53;2.03;;;23.40;74.50;;;;;;5054056;28;20025;-72
2021/07/10 11:17:51;;;;;;;3.13;2.20;;;23.40;74.50;;;;;;5054364;28;20017;-73
2021/07/10 11:20:41;;;;;;;2.25;1.83;;;23.50;74.50;;;;;;5054475;28;20122;-73
2021/07/10 11:23:08;;;;;;;1.40;1.30;;;23.70;74.30;;;;;;5036407;28;20040;-73
2021/07/10 11:25:49;;;;;;;2.40;1.63;;;23.90;73.90;;;;;;5036418;28;20402;-72
2021/07/10 11:28:19;;;;;;;1.55;1.40;;;24.30;73.60;;;;;;5053827;28;20493;-72
2021/07/10 11:30:46;;;;;;;1.42;1.33;;;24.40;73.10;;;;;;5036515;28;20116;-72
2021/07/10 11:33:13;;;;;;;3.17;1.95;;;24.60;72.90;;;;;;5054312;28;20108;-72
2021/07/10 11:35:43;;;;;;;2.42;2.10;;;24.60;72.90;;;;;;5054058;28;20500;-72
2021/07/10 11:38:39;;;;;;;2.50;2.00;;;24.50;72.70;;;;;;5054222;28;20096;-71
2021/07/10 11:41:05;;;;;;;2.75;2.20;;;24.40;72.90;;;;;;5053628;28;20021;-72
2021/07/10 11:43:38;;;;;;;2.97;2.25;;;24.20;72.90;;;;;;5053961;28;20383;-72
2021/07/10 11:46:04;;;;;;;1.88;1.73;;;23.90;73.40;;;;;;5036028;28;20028;-72
2021/07/10 11:48:31;;;;;;;2.40;1.63;;;23.70;73.50;;;;;;5053984;28;20025;-72
2021/07/10 11:51:03;;;;;;;1.98;1.77;;;23.70;73.90;;;;;;5053873;28;20028;-72
2021/07/10 11:53:29;;;;;;;2.35;1.50;;;24.20;73.60;;;;;;5053791;28;20036;-72
2021/07/10 11:55:57;;;;;;;2.50;2.22;;;24.80;72.40;;;;;;5053370;28;20028;-74
2021/07/10 11:58:24;;;;;;;1.85;1.40;;;25.30;71.30;;;;;;5035810;28;20025;-71
2021/07/10 12:00:50;;;;;;;1.63;1.52;;;25.70;70.90;;;;;;5053752;28;20055;-72
2021/07/10 12:03:23;;;;;;;1.83;1.58;;;25.80;70.70;;;;;;5053574;28;20060;-72
2021/07/10 12:05:51;;;;;;;1.50;1.40;;;25.90;70.40;;;;;;5053599;28;20036;-71
2021/07/10 12:08:18;;;;;;;1.55;1.23;;;25.90;70.90;;;;;;5053635;28;20087;-72
2021/07/10 12:10:45;;;;;;;2.17;1.60;;;26.00;71.00;;;;;;5053008;28;20028;-73
2021/07/10 12:13:13;;;;;;;1.73;1.60;;;26.20;70.50;;;;;;5053335;28;20524;-73
2021/07/10 12:15:47;;;;;;;1.63;1.52;;;26.30;70.50;;;;;;5053546;28;20129;-73
2021/07/10 12:18:14;;;;;;;1.42;1.30;;;26.50;70.30;;;;;;5035646;28;20025;-73
2021/07/10 12:20:46;;;;;;;1.45;1.35;;;26.80;69.90;;;;;;5053263;28;20024;-72
2021/07/10 12:23:22;;;;;;;0.90;0.90;;;27.20;69.30;;;;;;5053328;28;20036;-72
2021/07/10 12:25:56;;;;;;;1.52;1.30;;;27.50;69.20;;;;;;5052031;28;20024;-72
2021/07/10 12:28:34;;;;;;;0.73;0.73;;;28.00;68.50;;;;;;5053300;28;20024;-73
2021/07/10 12:31:12;;;;;;;2.08;1.42;;;28.30;67.90;;;;;;5053153;28;20482;-73
2021/07/10 12:33:39;;;;;;;1.85;1.70;;;28.50;67.60;;;;;;5053399;28;20052;-73
2021/07/10 12:36:18;;;;;;;1.42;1.30;;;28.40;67.50;;;;;;5053100;28;20528;-71
2021/07/10 12:38:53;;;;;;;1.38;1.20;;;28.20;67.80;;;;;;5035344;28;20029;-73
2021/07/10 12:41:38;;;;;;;1.35;1.25;;;27.90;68.50;;;;;;5053082;28;20048;-72
2021/07/10 12:44:14;;;;;;;1.58;1.13;;;27.80;68.50;;;;;;5053115;28;20163;-72
2021/07/10 12:46:51;;;;;;;1.27;1.17;;;27.50;68.70;;;;;;5053055;28;20029;-73
2021/07/10 12:49:17;;;;;;;1.33;1.17;;;27.30;69.00;;;;;;5052887;28;20028;-73
2021/07/10 12:51:44;;;;;;;1.67;1.40;;;27.20;69.30;;;;;;5053046;28;20028;-73